createdAt,value
2023-05-13T00:00:58.835Z,96228.50
2023-05-13T00:03:28.766Z,96226.72
2023-05-13T00:05:56.768Z,96220.94
2023-05-13T00:08:24.666Z,96226.97
2023-05-13T00:10:52.584Z,96229.28
2023-05-13T00:13:20.308Z,96233.81
2023-05-13T00:15:48.278Z,96227.97
2023-05-13T00:18:16.091Z,96223.50
2023-05-13T00:20:45.362Z,96220.22
2023-05-13T00:23:13.086Z,96218.91
2023-05-13T00:25:41.310Z,96223.25
2023-05-13T00:28:09.098Z,96228.34
2023-05-13T00:30:36.826Z,96228.44
2023-05-13T00:33:06.494Z,96225.34
2023-05-13T00:35:34.211Z,96224.97
2023-05-13T00:38:03.405Z,96225.59
2023-05-13T00:40:31.261Z,96222.91
2023-05-13T00:42:59.047Z,96217.59
2023-05-13T00:45:27.338Z,96226.66
2023-05-13T00:47:55.874Z,96229.56
2023-05-13T00:50:23.982Z,96234.50
2023-05-13T00:52:52.722Z,96226.16
2023-05-13T00:55:22.541Z,96230.31
2023-05-13T00:57:50.301Z,96231.91
2023-05-13T01:00:18.738Z,96224.59
2023-05-13T01:02:52.159Z,96228.56
2023-05-13T01:05:28.108Z,96222.63
2023-05-13T01:08:05.254Z,96215.88
2023-05-13T01:10:39.480Z,96219.72
2023-05-13T01:13:10.657Z,96225.69
2023-05-13T01:15:42.166Z,96230.59
2023-05-13T01:18:14.769Z,96219.97
2023-05-13T01:20:43.751Z,96231.59
2023-05-13T01:23:13.618Z,96223.41
2023-05-13T01:25:41.835Z,96232.13
2023-05-13T01:28:10.627Z,96222.97
2023-05-13T01:30:38.676Z,96223.22
2023-05-13T01:33:06.873Z,96226.84
2023-05-13T01:35:35.561Z,96214.50
2023-05-13T01:38:04.201Z,96216.75
2023-05-13T01:40:35.792Z,96237.56
2023-05-13T01:43:03.888Z,96233.34
2023-05-13T01:45:33.209Z,96234.13
2023-05-13T01:48:01.107Z,96233.34
2023-05-13T01:50:29.029Z,96230.59
2023-05-13T01:52:57.393Z,96232.06
2023-05-13T01:55:25.219Z,96233.56
2023-05-13T01:57:54.371Z,96241.41
2023-05-13T02:00:22.811Z,96233.84
2023-05-13T02:02:50.773Z,96238.81
2023-05-13T02:05:18.846Z,96244.38
2023-05-13T02:07:46.609Z,96243.94
2023-05-13T02:10:14.379Z,96240.38
2023-05-13T02:12:42.192Z,96250.78
2023-05-13T02:15:12.249Z,96246.88
2023-05-13T02:17:40.091Z,96255.47
2023-05-13T02:20:09.271Z,96237.72
2023-05-13T02:22:37.139Z,96246.31
2023-05-13T02:25:05.296Z,96241.84
2023-05-13T02:27:33.287Z,96247.78
2023-05-13T02:30:01.457Z,96247.19
2023-05-13T02:32:30.585Z,96246.25
2023-05-13T02:34:58.438Z,96244.94
2023-05-13T02:37:26.721Z,96240.69
2023-05-13T02:39:55.771Z,96246.03
2023-05-13T02:42:23.527Z,96244.66
2023-05-13T02:44:51.520Z,96243.72
2023-05-13T02:47:19.313Z,96252.25
2023-05-13T02:49:48.576Z,96238.31
2023-05-13T02:52:16.430Z,96254.13
2023-05-13T02:54:44.278Z,96253.31
2023-05-13T02:57:12.477Z,96254.84
2023-05-13T02:59:40.242Z,96256.00
2023-05-13T03:02:08.392Z,96240.28
2023-05-13T03:04:36.210Z,96249.50
2023-05-13T03:07:05.963Z,96246.81
2023-05-13T03:09:35.173Z,96252.31
2023-05-13T03:12:03.053Z,96254.16
2023-05-13T03:14:31.018Z,96250.81
2023-05-13T03:16:58.781Z,96256.53
2023-05-13T03:19:26.492Z,96251.41
2023-05-13T03:21:54.367Z,96267.13
2023-05-13T03:24:23.914Z,96258.34
2023-05-13T03:26:51.802Z,96236.31
2023-05-13T03:29:20.404Z,96259.16
2023-05-13T03:31:48.316Z,96259.28
2023-05-13T03:34:16.197Z,96257.44
2023-05-13T03:36:43.933Z,96275.50
2023-05-13T03:39:11.722Z,96268.00
2023-05-13T03:41:41.037Z,96270.59
2023-05-13T03:44:08.782Z,96274.16
2023-05-13T03:46:36.650Z,96256.97
2023-05-13T03:49:04.817Z,96258.56
2023-05-13T03:51:34.251Z,96266.44
2023-05-13T03:54:02.272Z,96273.13
2023-05-13T03:56:30.124Z,96261.13
2023-05-13T03:58:59.392Z,96277.03
2023-05-13T04:01:27.321Z,96279.47
2023-05-13T04:03:55.179Z,96283.75
2023-05-13T04:06:23.049Z,96275.34
2023-05-13T04:08:52.463Z,96288.47
2023-05-13T04:11:20.226Z,96287.53
2023-05-13T04:13:47.914Z,96290.53
2023-05-13T04:16:17.434Z,96294.81
2023-05-13T04:18:45.559Z,96297.41
2023-05-13T04:21:13.325Z,96300.50
2023-05-13T04:23:41.112Z,96292.53
2023-05-13T04:26:09.509Z,96309.75
2023-05-13T04:28:37.381Z,96294.72
2023-05-13T04:31:05.143Z,96295.97
2023-05-13T04:33:34.344Z,96293.50
2023-05-13T04:36:02.269Z,96300.41
2023-05-13T04:38:30.032Z,96305.78
2023-05-13T04:40:57.714Z,96302.13
2023-05-13T04:43:25.757Z,96306.16
2023-05-13T04:45:53.753Z,96313.44
2023-05-13T04:48:21.596Z,96315.53
2023-05-13T04:50:52.550Z,96311.38
2023-05-13T04:53:20.874Z,96315.41
2023-05-13T04:55:49.661Z,96317.84
2023-05-13T04:58:17.537Z,96316.50
2023-05-13T05:00:45.701Z,96315.09
2023-05-13T05:03:13.485Z,96315.66
2023-05-13T05:05:41.380Z,96315.34
2023-05-13T05:08:10.471Z,96313.03
2023-05-13T05:10:38.281Z,96319.59
2023-05-13T05:13:06.100Z,96318.84
2023-05-13T05:15:33.934Z,96328.97
2023-05-13T05:18:01.860Z,96322.38
2023-05-13T05:20:29.731Z,96331.50
2023-05-13T05:22:57.480Z,96329.34
2023-05-13T05:25:26.744Z,96338.69
2023-05-13T05:27:54.576Z,96333.25
2023-05-13T05:30:22.886Z,96340.31
2023-05-13T05:32:51.323Z,96338.41
2023-05-13T05:35:19.900Z,96339.69
2023-05-13T05:37:47.704Z,96339.47
2023-05-13T05:40:15.675Z,96338.94
2023-05-13T05:42:44.740Z,96343.97
2023-05-13T05:45:12.829Z,96343.00
2023-05-13T05:47:40.603Z,96340.91
2023-05-13T05:50:09.187Z,96338.31
2023-05-13T05:52:36.959Z,96358.44
2023-05-13T05:55:04.794Z,96353.22
2023-05-13T05:57:32.519Z,96340.75
2023-05-13T06:00:01.597Z,96350.09
2023-05-13T06:02:29.525Z,96348.97
2023-05-13T06:04:57.352Z,96345.53
2023-05-13T06:07:25.173Z,96352.50
2023-05-13T06:09:52.892Z,96354.16
2023-05-13T06:12:21.245Z,96347.72
2023-05-13T06:14:48.908Z,96352.09
2023-05-13T06:17:17.997Z,96354.97
2023-05-13T06:19:45.837Z,96359.47
2023-05-13T06:22:13.653Z,96354.00
2023-05-13T06:24:42.978Z,96359.16
2023-05-13T06:27:11.559Z,96329.56
2023-05-13T06:29:39.422Z,96357.84
2023-05-13T06:32:08.301Z,96361.06
2023-05-13T06:34:38.373Z,96348.88
2023-05-13T06:37:06.110Z,96354.50
2023-05-13T06:39:33.819Z,96358.16
2023-05-13T06:42:01.526Z,96354.16
2023-05-13T06:44:29.364Z,96354.09
2023-05-13T06:46:57.204Z,96360.50
2023-05-13T06:49:25.190Z,96361.75
2023-05-13T06:51:54.376Z,96372.19
2023-05-13T06:54:22.166Z,96357.75
2023-05-13T06:56:49.929Z,96363.91
2023-05-13T06:59:17.758Z,96362.97
2023-05-13T07:01:45.475Z,96365.31
2023-05-13T07:04:13.323Z,96349.19
2023-05-13T07:06:41.236Z,96364.75
2023-05-13T07:09:10.532Z,96357.88
2023-05-13T07:11:38.811Z,96369.13
2023-05-13T07:14:06.592Z,96367.16
2023-05-13T07:16:34.357Z,96348.91
2023-05-13T07:19:02.195Z,96372.97
2023-05-13T07:21:31.119Z,96373.25
2023-05-13T07:23:59.022Z,96374.91
2023-05-13T07:26:28.206Z,96372.97
2023-05-13T07:28:55.918Z,96377.72
2023-05-13T07:31:23.753Z,96384.94
2023-05-13T07:33:51.526Z,96380.28
2023-05-13T07:36:19.383Z,96377.84
2023-05-13T07:38:47.105Z,96380.09
2023-05-13T07:41:14.806Z,96376.66
2023-05-13T07:43:44.327Z,96379.09
2023-05-13T07:46:12.165Z,96372.38
2023-05-13T07:48:40.146Z,96378.72
2023-05-13T07:51:07.979Z,96376.88
2023-05-13T07:53:36.700Z,96372.84
2023-05-13T07:56:04.746Z,96373.97
2023-05-13T07:58:32.529Z,96380.06
2023-05-13T08:01:01.680Z,96375.38
2023-05-13T08:03:29.504Z,96368.69
2023-05-13T08:05:57.513Z,96372.16
2023-05-13T08:08:25.210Z,96377.44
2023-05-13T08:10:52.944Z,96377.44
2023-05-13T08:13:21.479Z,96382.16
2023-05-13T08:15:49.290Z,96375.63
2023-05-13T08:18:18.391Z,96347.78
2023-05-13T08:20:46.242Z,96389.00
2023-05-13T08:23:13.900Z,96382.09
2023-05-13T08:25:42.020Z,96386.72
2023-05-13T08:28:09.820Z,96357.78
2023-05-13T08:30:37.737Z,96382.44
2023-05-13T08:33:05.695Z,96379.91
2023-05-13T08:35:34.817Z,96379.25
2023-05-13T08:38:03.830Z,96378.91
2023-05-13T08:40:32.139Z,96375.22
2023-05-13T08:43:02.948Z,96386.56
2023-05-13T08:45:31.998Z,96390.44
2023-05-13T08:48:02.228Z,96380.19
2023-05-13T08:50:30.049Z,96385.06
2023-05-13T08:53:00.782Z,96379.56
2023-05-13T08:55:29.656Z,96381.72
2023-05-13T08:57:57.437Z,96385.63
2023-05-13T09:00:25.506Z,96392.88
2023-05-13T09:02:53.410Z,96386.88
2023-05-13T09:05:22.937Z,96396.91
2023-05-13T09:07:51.052Z,96391.19
2023-05-13T09:10:21.584Z,96398.97
2023-05-13T09:12:50.973Z,96394.91
2023-05-13T09:15:20.775Z,96392.44
2023-05-13T09:17:51.524Z,96401.56
2023-05-13T09:20:20.372Z,96398.44
2023-05-13T09:22:49.380Z,96398.44
2023-05-13T09:25:19.509Z,96394.78
2023-05-13T09:27:50.973Z,96397.53
2023-05-13T09:30:18.787Z,96392.84
2023-05-13T09:33:04.788Z,96387.56
2023-05-13T09:35:33.222Z,96394.84
2023-05-13T09:38:01.244Z,96397.69
2023-05-13T09:40:29.317Z,96403.72
2023-05-13T09:43:00.036Z,96402.84
2023-05-13T09:45:28.100Z,96402.84
2023-05-13T09:47:57.450Z,96403.75
2023-05-13T09:50:25.428Z,96405.53
2023-05-13T09:52:53.306Z,96411.25
2023-05-13T09:55:21.161Z,96409.31
2023-05-13T09:57:49.501Z,96402.06
2023-05-13T10:00:31.652Z,96403.53
2023-05-13T10:03:01.135Z,96395.66
2023-05-13T10:05:29.055Z,96394.78
2023-05-13T10:07:57.746Z,96417.13
2023-05-13T10:10:25.919Z,96414.44
2023-05-13T10:12:54.236Z,96415.84
2023-05-13T10:15:25.490Z,96412.38
2023-05-13T10:17:54.042Z,96415.84
2023-05-13T10:20:23.100Z,96408.94
2023-05-13T10:22:52.171Z,96410.34
2023-05-13T10:25:23.073Z,96406.13
2023-05-13T10:27:52.440Z,96407.13
2023-05-13T10:30:26.215Z,96413.38
2023-05-13T10:32:55.587Z,96406.66
2023-05-13T10:35:29.058Z,96401.44
2023-05-13T10:38:02.872Z,96409.81
2023-05-13T10:40:44.945Z,96418.00
2023-05-13T10:43:18.222Z,96408.66
2023-05-13T10:45:48.172Z,96411.22
2023-05-13T10:48:18.364Z,96424.00
2023-05-13T10:50:54.517Z,96415.81
2023-05-13T10:53:27.430Z,96393.59
2023-05-13T10:55:57.215Z,96407.03
2023-05-13T10:58:30.872Z,96380.97
2023-05-13T11:01:15.070Z,96387.66
2023-05-13T11:03:52.392Z,96404.00
2023-05-13T11:06:22.932Z,96386.75
2023-05-13T11:08:55.767Z,96341.72
2023-05-13T11:11:31.223Z,96399.28
2023-05-13T11:14:09.083Z,96383.00
2023-05-13T11:16:37.611Z,96399.53
2023-05-13T11:19:21.463Z,96400.09
2023-05-13T11:21:53.012Z,96395.25
2023-05-13T11:24:23.075Z,96402.16
2023-05-13T11:26:52.892Z,96382.19
2023-05-13T11:29:32.531Z,96396.38
2023-05-13T11:32:01.914Z,96385.78
2023-05-13T11:34:32.144Z,96375.84
2023-05-13T11:37:09.541Z,96383.38
2023-05-13T11:39:40.765Z,96383.84
2023-05-13T11:42:09.856Z,96380.91
2023-05-13T11:44:39.094Z,96390.38
2023-05-13T11:47:08.112Z,96363.81
2023-05-13T11:49:40.396Z,96386.84
2023-05-13T11:52:11.192Z,96380.94
2023-05-13T11:54:43.978Z,96376.94
2023-05-13T11:57:22.255Z,96377.09
2023-05-13T11:59:58.733Z,96383.56
2023-05-13T12:02:28.680Z,96346.91
2023-05-13T12:05:01.811Z,96382.22
2023-05-13T12:07:29.665Z,96380.81
2023-05-13T12:09:59.430Z,96378.75
2023-05-13T12:12:28.289Z,96378.50
2023-05-13T12:14:57.142Z,96395.28
2023-05-13T12:17:25.316Z,96384.78
2023-05-13T12:20:12.922Z,96377.22
2023-05-13T12:22:54.470Z,96369.13
2023-05-13T12:25:39.929Z,96390.13
2023-05-13T12:28:09.115Z,96387.63
2023-05-13T12:30:39.779Z,96396.72
2023-05-13T12:33:14.627Z,96386.56
2023-05-13T12:35:43.906Z,96395.88
2023-05-13T12:38:17.446Z,96397.78
2023-05-13T12:40:45.853Z,96394.13
2023-05-13T12:43:14.136Z,96402.06
2023-05-13T12:45:45.489Z,96394.75
2023-05-13T12:48:14.336Z,96400.47
2023-05-13T12:50:43.571Z,96403.09
2023-05-13T12:53:11.345Z,96404.88
2023-05-13T12:55:40.105Z,96398.47
2023-05-13T12:58:10.938Z,96402.72
2023-05-13T13:00:39.021Z,96375.41
2023-05-13T13:03:07.937Z,96405.22
2023-05-13T13:05:36.072Z,96407.84
2023-05-13T13:08:06.289Z,96396.66
2023-05-13T13:10:34.741Z,96397.88
2023-05-13T13:13:02.578Z,96400.25
2023-05-13T13:15:30.667Z,96399.25
2023-05-13T13:17:58.796Z,96404.13
2023-05-13T13:20:26.680Z,96401.34
2023-05-13T13:22:54.853Z,96397.88
2023-05-13T13:25:24.333Z,96396.88
2023-05-13T13:27:52.291Z,96398.25
2023-05-13T13:30:20.025Z,96403.53
2023-05-13T13:32:47.769Z,96385.44
2023-05-13T13:35:15.718Z,96374.25
2023-05-13T13:37:43.476Z,96393.53
2023-05-13T13:40:12.944Z,96398.25
2023-05-13T13:42:44.499Z,96386.22
2023-05-13T13:45:13.507Z,96384.81
2023-05-13T13:47:41.352Z,96387.56
2023-05-13T13:50:09.633Z,96380.44
2023-05-13T13:52:37.323Z,96378.38
2023-05-13T13:55:05.855Z,96385.22
2023-05-13T13:57:33.670Z,96385.31
2023-05-13T14:00:02.926Z,96325.50
2023-05-13T14:02:30.868Z,96382.34
2023-05-13T14:04:58.655Z,96388.63
2023-05-13T14:07:26.578Z,96394.59
2023-05-13T14:09:54.273Z,96382.19
2023-05-13T14:12:22.015Z,96386.25
2023-05-13T14:14:49.753Z,96386.56
2023-05-13T14:17:18.978Z,96384.88
2023-05-13T14:19:46.797Z,96388.69
2023-05-13T14:22:14.504Z,96392.44
2023-05-13T14:24:42.193Z,96384.34
2023-05-13T14:27:09.985Z,96389.22
2023-05-13T14:29:37.737Z,96391.13
2023-05-13T14:32:06.341Z,96390.81
2023-05-13T14:34:35.753Z,96389.19
2023-05-13T14:37:03.574Z,96389.16
2023-05-13T14:39:31.383Z,96376.78
2023-05-13T14:41:59.145Z,96370.59
2023-05-13T14:44:26.827Z,96373.84
2023-05-13T14:46:54.732Z,96376.78
2023-05-13T14:49:22.680Z,96380.59
2023-05-13T14:51:51.806Z,96371.41
2023-05-13T14:54:19.596Z,96363.84
2023-05-13T14:56:47.557Z,96381.34
2023-05-13T14:59:15.341Z,96380.03
2023-05-13T15:01:43.073Z,96373.06
2023-05-13T15:04:10.854Z,96368.69
2023-05-13T15:06:39.428Z,96375.19
2023-05-13T15:09:08.651Z,96359.81
2023-05-13T15:11:37.175Z,96374.13
2023-05-13T15:14:05.602Z,96375.66
2023-05-13T15:16:33.433Z,96366.56
2023-05-13T15:19:01.229Z,96373.25
2023-05-13T15:21:29.028Z,96373.59
2023-05-13T15:23:56.773Z,96377.84
2023-05-13T15:26:26.130Z,96377.34
2023-05-13T15:28:53.994Z,96376.47
2023-05-13T15:31:21.919Z,96384.13
2023-05-13T15:33:49.735Z,96376.56
2023-05-13T15:36:17.553Z,96390.38
2023-05-13T15:38:45.403Z,96377.66
2023-05-13T15:41:13.099Z,96379.34
2023-05-13T15:43:42.146Z,96377.66
2023-05-13T15:46:09.947Z,96371.41
2023-05-13T15:48:37.708Z,96378.72
2023-05-13T15:51:06.889Z,96381.53
2023-05-13T15:53:34.780Z,96367.69
2023-05-13T15:56:02.539Z,96369.13
2023-05-13T15:58:30.298Z,96369.56
2023-05-13T16:00:59.392Z,96363.56
2023-05-13T16:03:27.154Z,96361.72
2023-05-13T16:05:55.330Z,96369.09
2023-05-13T16:08:23.075Z,96354.84
2023-05-13T16:10:50.849Z,96357.25
2023-05-13T16:13:18.591Z,96350.84
2023-05-13T16:15:46.445Z,96367.81
2023-05-13T16:18:15.601Z,96359.44
2023-05-13T16:20:43.498Z,96365.38
2023-05-13T16:23:11.282Z,96366.72
2023-05-13T16:25:39.444Z,96363.53
2023-05-13T16:28:07.394Z,96365.19
2023-05-13T16:30:35.264Z,96366.00
2023-05-13T16:33:03.097Z,96359.13
2023-05-13T16:35:32.285Z,96351.25
2023-05-13T16:38:00.128Z,96359.75
2023-05-13T16:40:28.021Z,96380.97
2023-05-13T16:42:59.303Z,96372.91
2023-05-13T16:45:28.855Z,96364.03
2023-05-13T16:47:56.729Z,96359.97
2023-05-13T16:50:24.892Z,96357.19
2023-05-13T16:52:54.576Z,96357.66
2023-05-13T16:55:22.519Z,96359.13
2023-05-13T16:57:50.946Z,96366.66
2023-05-13T17:00:19.404Z,96372.47
2023-05-13T17:02:47.292Z,96383.06
2023-05-13T17:05:15.082Z,96386.81
2023-05-13T17:07:42.816Z,96378.19
2023-05-13T17:10:12.331Z,96370.34
2023-05-13T17:12:40.447Z,96381.19
2023-05-13T17:15:09.159Z,96372.03
2023-05-13T17:17:36.959Z,96387.47
2023-05-13T17:20:05.519Z,96386.03
2023-05-13T17:22:33.358Z,96385.72
2023-05-13T17:25:01.093Z,96380.44
2023-05-13T17:27:30.390Z,96385.78
2023-05-13T17:29:58.121Z,96367.84
2023-05-13T17:32:26.223Z,96381.06
2023-05-13T17:34:53.935Z,96386.88
2023-05-13T17:37:21.690Z,96386.09
2023-05-13T17:39:50.353Z,96377.25
2023-05-13T17:42:18.075Z,96373.34
2023-05-13T17:44:47.222Z,96372.31
2023-05-13T17:47:14.938Z,96387.38
2023-05-13T17:49:42.721Z,96382.19
2023-05-13T17:52:10.910Z,96374.59
2023-05-13T17:54:38.681Z,96376.91
2023-05-13T17:57:06.801Z,96384.19
2023-05-13T17:59:34.529Z,96391.47
2023-05-13T18:02:03.633Z,96389.41
2023-05-13T18:04:31.386Z,96384.78
2023-05-13T18:06:59.215Z,96382.09
2023-05-13T18:09:26.977Z,96384.31
2023-05-13T18:11:54.727Z,96373.56
2023-05-13T18:14:22.589Z,96375.78
2023-05-13T18:16:51.038Z,96377.38
2023-05-13T18:19:20.395Z,96376.22
2023-05-13T18:21:48.179Z,96378.59
2023-05-13T18:24:16.368Z,96368.72
2023-05-13T18:26:44.206Z,96379.84
2023-05-13T18:29:12.370Z,96376.41
2023-05-13T18:31:40.217Z,96387.22
2023-05-13T18:34:08.087Z,96384.34
2023-05-13T18:36:37.352Z,96392.75
2023-05-13T18:39:05.343Z,96385.75
2023-05-13T18:41:33.093Z,96387.13
2023-05-13T18:44:00.831Z,96402.00
2023-05-13T18:46:28.863Z,96399.34
2023-05-13T18:48:56.880Z,96396.50
2023-05-13T18:51:24.744Z,96381.28
2023-05-13T18:53:53.967Z,96400.22
2023-05-13T18:56:21.749Z,96390.59
2023-05-13T18:58:49.490Z,96393.53
2023-05-13T19:01:17.361Z,96383.38
2023-05-13T19:03:45.434Z,96400.22
2023-05-13T19:06:13.383Z,96404.31
2023-05-13T19:08:41.104Z,96403.69
2023-05-13T19:11:10.295Z,96403.22
2023-05-13T19:13:46.840Z,96402.75
2023-05-13T19:16:15.709Z,96409.06
2023-05-13T19:18:43.704Z,96406.38
2023-05-13T19:21:11.561Z,96410.44
2023-05-13T19:23:39.336Z,96411.22
2023-05-13T19:26:07.199Z,96411.88
2023-05-13T19:28:38.068Z,96417.09
2023-05-13T19:31:06.360Z,96423.78
2023-05-13T19:33:36.964Z,96409.13
2023-05-13T19:36:05.012Z,96430.47
2023-05-13T19:38:33.120Z,96420.53
2023-05-13T19:41:00.933Z,96424.03
2023-05-13T19:43:28.713Z,96432.69
2023-05-13T19:45:57.846Z,96425.56
2023-05-13T19:48:26.809Z,96407.66
2023-05-13T19:50:57.876Z,96424.00
2023-05-13T19:53:26.105Z,96421.25
2023-05-13T19:55:53.813Z,96425.50
2023-05-13T19:58:21.571Z,96424.38
2023-05-13T20:00:49.307Z,96428.31
2023-05-13T20:03:18.722Z,96420.50
2023-05-13T20:05:48.670Z,96419.94
2023-05-13T20:08:16.458Z,96428.75
2023-05-13T20:10:44.236Z,96426.06
2023-05-13T20:13:12.352Z,96428.75
2023-05-13T20:15:40.169Z,96430.38
2023-05-13T20:18:08.029Z,96427.25
2023-05-13T20:20:37.209Z,96435.34
2023-05-13T20:23:04.933Z,96442.03
2023-05-13T20:25:32.675Z,96419.31
2023-05-13T20:28:00.562Z,96436.56
2023-05-13T20:30:28.324Z,96432.13
2023-05-13T20:32:56.109Z,96433.16
2023-05-13T20:35:24.155Z,96435.06
2023-05-13T20:37:53.256Z,96432.91
2023-05-13T20:40:21.131Z,96427.63
2023-05-13T20:42:49.026Z,96426.31
2023-05-13T20:45:16.977Z,96431.63
2023-05-13T20:47:44.765Z,96427.88
2023-05-13T20:50:13.432Z,96430.78
2023-05-13T20:52:41.231Z,96420.28
2023-05-13T20:55:11.091Z,96432.97
2023-05-13T20:57:38.816Z,96410.34
2023-05-13T21:00:08.035Z,96423.88
2023-05-13T21:02:35.900Z,96421.47
2023-05-13T21:05:03.697Z,96426.03
2023-05-13T21:07:31.583Z,96426.00
2023-05-13T21:09:59.446Z,96412.69
2023-05-13T21:12:28.615Z,96407.81
2023-05-13T21:14:56.393Z,96419.50
2023-05-13T21:17:24.753Z,96414.25
2023-05-13T21:19:52.657Z,96412.88
2023-05-13T21:22:20.889Z,96416.94
2023-05-13T21:24:48.714Z,96407.03
2023-05-13T21:27:16.476Z,96405.00
2023-05-13T21:29:45.745Z,96408.19
2023-05-13T21:32:13.503Z,96406.31
2023-05-13T21:34:41.326Z,96406.88
2023-05-13T21:37:09.100Z,96405.78
2023-05-13T21:39:36.851Z,96401.03
2023-05-13T21:42:04.723Z,96404.00
2023-05-13T21:44:32.449Z,96400.41
2023-05-13T21:47:01.538Z,96409.16
2023-05-13T21:49:29.308Z,96412.25
2023-05-13T21:51:57.131Z,96402.66
2023-05-13T21:54:24.937Z,96412.00
2023-05-13T21:56:52.663Z,96390.81
2023-05-13T21:59:20.363Z,96392.44
2023-05-13T22:01:48.124Z,96395.59
2023-05-13T22:04:17.330Z,96396.47
2023-05-13T22:06:45.104Z,96388.16
2023-05-13T22:09:12.888Z,96403.66
2023-05-13T22:11:40.611Z,96386.03
2023-05-13T22:14:08.326Z,96395.34
2023-05-13T22:16:36.452Z,96391.06
2023-05-13T22:19:04.670Z,96397.94
2023-05-13T22:21:34.259Z,96392.78
2023-05-13T22:24:02.014Z,96394.63
2023-05-13T22:26:29.712Z,96393.66
2023-05-13T22:28:57.438Z,96366.84
2023-05-13T22:31:25.842Z,96395.44
2023-05-13T22:33:53.688Z,96382.69
2023-05-13T22:36:21.483Z,96381.22
2023-05-13T22:38:50.781Z,96395.06
2023-05-13T22:41:20.808Z,96387.91
2023-05-13T22:43:48.594Z,96395.19
2023-05-13T22:46:16.406Z,96397.72
2023-05-13T22:48:44.363Z,96386.41
2023-05-13T22:51:12.146Z,96401.69
2023-05-13T22:53:39.888Z,96396.81
2023-05-13T22:56:09.207Z,96394.88
2023-05-13T22:58:37.001Z,96375.78
2023-05-13T23:01:04.740Z,96396.47
2023-05-13T23:03:32.690Z,96386.00
2023-05-13T23:06:00.430Z,96393.88
2023-05-13T23:08:28.421Z,96379.84
2023-05-13T23:10:57.123Z,96389.19
2023-05-13T23:13:26.355Z,96391.03
2023-05-13T23:15:54.147Z,96396.00
2023-05-13T23:18:22.049Z,96390.63
2023-05-13T23:20:55.764Z,96391.28
2023-05-13T23:23:23.756Z,96386.16
2023-05-13T23:25:51.742Z,96384.75
2023-05-13T23:28:19.531Z,96377.94
2023-05-13T23:30:48.851Z,96380.38
2023-05-13T23:33:16.697Z,96377.53
2023-05-13T23:35:44.555Z,96353.41
2023-05-13T23:38:12.478Z,96331.66
2023-05-13T23:40:40.376Z,96297.59
2023-05-13T23:43:08.209Z,96309.94
2023-05-13T23:45:36.141Z,96333.94
2023-05-13T23:48:05.925Z,96343.28
2023-05-13T23:50:33.880Z,96324.28
2023-05-13T23:53:01.669Z,96349.38
2023-05-13T23:55:29.474Z,96350.66
2023-05-13T23:57:57.234Z,96348.38
